createdAt,value
2023-02-02T00:05:09.678Z,4.85
2023-02-02T00:10:30.560Z,4.85
2023-02-02T00:15:53.206Z,4.91
2023-02-02T00:21:13.499Z,5.04
2023-02-02T00:26:34.727Z,5.17
2023-02-02T00:31:55.675Z,5.26
2023-02-02T00:37:16.190Z,5.31
2023-02-02T00:42:36.784Z,5.35
2023-02-02T00:47:57.226Z,5.34
2023-02-02T00:53:18.433Z,5.37
2023-02-02T00:58:41.121Z,5.35
2023-02-02T01:04:02.414Z,5.36
2023-02-02T01:09:23.107Z,5.38
2023-02-02T01:14:44.005Z,5.38
2023-02-02T01:20:05.900Z,5.37
2023-02-02T01:25:27.560Z,5.36
2023-02-02T01:30:49.382Z,5.37
2023-02-02T01:36:15.917Z,5.35
2023-02-02T01:41:36.441Z,5.34
2023-02-02T01:46:56.955Z,5.35
2023-02-02T01:52:20.722Z,5.32
2023-02-02T01:58:14.102Z,5.21
2023-02-02T02:03:37.483Z,5.07
2023-02-02T02:09:04.396Z,5.00
2023-02-02T02:14:44.876Z,4.97
2023-02-02T02:20:50.759Z,4.93
2023-02-02T02:26:40.196Z,4.90
2023-02-02T02:32:05.541Z,4.89
2023-02-02T02:38:00.654Z,4.89
2023-02-02T02:43:35.480Z,4.86
2023-02-02T02:49:01.426Z,4.86
2023-02-02T02:54:27.494Z,4.85
2023-02-02T03:00:12.482Z,4.83
2023-02-02T03:05:33.193Z,4.86
2023-02-02T03:10:56.952Z,4.85
2023-02-02T03:16:17.827Z,4.84
2023-02-02T03:21:38.391Z,4.81
2023-02-02T03:26:58.977Z,4.82
2023-02-02T03:32:19.302Z,4.84
2023-02-02T03:37:40.342Z,4.81
2023-02-02T03:43:01.679Z,4.83
2023-02-02T03:48:22.561Z,4.77
2023-02-02T03:53:49.745Z,4.72
2023-02-02T03:59:10.327Z,4.69
2023-02-02T04:04:31.050Z,4.62
2023-02-02T04:09:51.816Z,4.60
2023-02-02T04:15:12.801Z,4.59
2023-02-02T04:20:33.392Z,4.59
2023-02-02T04:25:53.767Z,4.55
2023-02-02T04:31:14.485Z,4.52
2023-02-02T04:36:34.767Z,4.49
2023-02-02T04:41:55.236Z,4.48
2023-02-02T04:47:15.611Z,4.47
2023-02-02T04:52:36.070Z,4.49
2023-02-02T04:57:56.459Z,4.51
2023-02-02T05:03:17.155Z,4.55
2023-02-02T05:08:38.255Z,4.60
2023-02-02T05:13:59.111Z,4.62
2023-02-02T05:19:19.997Z,4.70
2023-02-02T05:24:40.967Z,4.66
2023-02-02T05:30:01.618Z,4.55
2023-02-02T05:35:23.636Z,4.51
2023-02-02T05:40:44.270Z,4.52
2023-02-02T05:46:05.084Z,4.54
2023-02-02T05:51:31.312Z,4.59
2023-02-02T05:56:54.668Z,4.60
2023-02-02T06:02:15.229Z,4.61
2023-02-02T06:07:35.754Z,4.60
2023-02-02T06:12:58.318Z,4.62
2023-02-02T06:18:19.309Z,4.72
2023-02-02T06:23:45.600Z,4.67
2023-02-02T06:29:06.858Z,4.59
2023-02-02T06:34:27.480Z,4.68
2023-02-02T06:39:47.966Z,4.70
2023-02-02T06:45:09.275Z,4.83
2023-02-02T06:50:30.453Z,4.85
2023-02-02T06:56:02.061Z,4.88
2023-02-02T07:01:23.014Z,4.86
2023-02-02T07:06:43.417Z,4.83
2023-02-02T07:12:11.383Z,4.77
2023-02-02T07:17:32.001Z,4.83
2023-02-02T07:22:53.209Z,4.85
2023-02-02T07:28:14.456Z,4.83
2023-02-02T07:33:38.897Z,4.84
2023-02-02T07:38:59.682Z,4.87
2023-02-02T07:44:20.667Z,4.85
2023-02-02T07:49:41.623Z,4.82
2023-02-02T07:55:13.881Z,4.83
2023-02-02T08:00:35.332Z,4.88
2023-02-02T08:05:57.399Z,4.88
2023-02-02T08:11:23.280Z,4.93
2023-02-02T08:16:43.861Z,4.99
2023-02-02T08:22:04.618Z,5.04
2023-02-02T08:27:25.111Z,5.11
2023-02-02T08:32:45.746Z,5.17
2023-02-02T08:38:07.465Z,5.22
2023-02-02T08:43:28.936Z,5.30
2023-02-02T08:48:49.755Z,5.37
2023-02-02T08:54:10.437Z,5.41
2023-02-02T08:59:30.855Z,5.44
2023-02-02T09:04:51.605Z,5.46
2023-02-02T09:10:12.496Z,5.50
2023-02-02T09:15:33.153Z,5.59
2023-02-02T09:21:00.467Z,5.61
2023-02-02T09:26:28.884Z,5.70
2023-02-02T09:31:50.462Z,5.79
2023-02-02T09:37:11.285Z,5.88
2023-02-02T09:42:38.512Z,5.92
2023-02-02T09:48:25.548Z,6.04
2023-02-02T09:53:55.527Z,6.22
2023-02-02T09:59:27.599Z,6.47
2023-02-02T10:04:54.435Z,6.86
2023-02-02T10:10:29.316Z,7.25
2023-02-02T10:16:28.463Z,7.54
2023-02-02T10:21:54.694Z,7.92
2023-02-02T10:27:17.504Z,8.36
2023-02-02T10:33:16.479Z,8.53
2023-02-02T10:39:03.923Z,8.74
2023-02-02T10:44:34.834Z,9.21
2023-02-02T10:50:13.859Z,10.16
2023-02-02T10:55:42.952Z,12.76
2023-02-02T11:01:07.871Z,14.11
2023-02-02T11:06:46.763Z,13.41
2023-02-02T11:12:20.537Z,12.02
2023-02-02T11:17:41.007Z,11.45
2023-02-02T11:23:03.648Z,11.09
2023-02-02T11:28:30.166Z,11.02
2023-02-02T11:33:50.903Z,11.28
2023-02-02T11:39:19.364Z,11.46
2023-02-02T11:44:40.848Z,11.51
2023-02-02T11:50:04.245Z,11.64
2023-02-02T11:55:31.718Z,11.68
2023-02-02T12:00:59.033Z,12.02
2023-02-02T12:06:25.148Z,12.13
2023-02-02T12:12:10.337Z,12.26
2023-02-02T12:17:44.566Z,12.38
2023-02-02T12:23:26.223Z,12.10
2023-02-02T12:29:09.070Z,12.21
2023-02-02T12:34:58.129Z,11.93
2023-02-02T12:40:58.416Z,11.44
2023-02-02T12:46:49.686Z,11.45
2023-02-02T12:52:22.118Z,11.13
2023-02-02T12:57:48.710Z,10.70
2023-02-02T13:03:30.974Z,10.33
2023-02-02T13:09:03.156Z,10.10
2023-02-02T13:14:29.954Z,9.73
2023-02-02T13:19:55.540Z,9.45
2023-02-02T13:25:28.925Z,9.19
2023-02-02T13:30:50.869Z,8.92
2023-02-02T13:36:29.477Z,8.57
2023-02-02T13:41:51.218Z,8.69
2023-02-02T13:47:20.463Z,8.66
2023-02-02T13:53:02.696Z,8.48
2023-02-02T13:58:54.217Z,8.23
2023-02-02T14:04:22.537Z,7.87
2023-02-02T14:09:43.100Z,7.74
2023-02-02T14:15:05.180Z,7.79
2023-02-02T14:20:43.699Z,7.90
2023-02-02T14:26:09.697Z,8.03
2023-02-02T14:31:43.195Z,7.94
2023-02-02T14:37:22.762Z,7.98
2023-02-02T14:43:25.715Z,7.89
2023-02-02T14:48:48.544Z,7.79
2023-02-02T14:54:21.323Z,7.84
2023-02-02T14:59:49.693Z,7.83
2023-02-02T15:05:28.623Z,7.84
2023-02-02T15:11:22.481Z,7.83
2023-02-02T15:16:46.072Z,7.88
2023-02-02T15:22:32.682Z,7.89
2023-02-02T15:28:26.211Z,7.73
2023-02-02T15:33:52.338Z,7.61
2023-02-02T15:39:38.864Z,7.43
2023-02-02T15:44:59.631Z,7.45
2023-02-02T15:50:21.252Z,7.43
2023-02-02T15:55:41.980Z,7.18
2023-02-02T16:01:09.041Z,6.97
2023-02-02T16:06:30.702Z,6.72
2023-02-02T16:11:52.210Z,6.54
2023-02-02T16:17:21.375Z,6.39
2023-02-02T16:22:45.260Z,6.35
2023-02-02T16:28:14.272Z,6.22
2023-02-02T16:33:36.367Z,6.18
2023-02-02T16:39:03.363Z,6.17
2023-02-02T16:44:43.846Z,6.05
2023-02-02T16:50:07.608Z,6.00
2023-02-02T16:55:47.855Z,5.94
2023-02-02T17:01:16.626Z,5.82
2023-02-02T17:06:50.482Z,5.80
2023-02-02T17:12:32.252Z,5.76
2023-02-02T17:17:56.808Z,5.76
2023-02-02T17:23:18.391Z,5.76
2023-02-02T17:28:41.364Z,5.79
2023-02-02T17:34:02.724Z,5.83
2023-02-02T17:39:25.816Z,5.75
2023-02-02T17:44:46.994Z,5.79
2023-02-02T17:50:07.435Z,5.80
2023-02-02T17:55:34.508Z,5.78
2023-02-02T18:00:58.887Z,5.82
2023-02-02T18:06:19.864Z,5.87
2023-02-02T18:11:42.520Z,5.85
2023-02-02T18:17:03.195Z,5.89
2023-02-02T18:22:24.500Z,5.88
2023-02-02T18:27:46.480Z,5.78
2023-02-02T18:33:09.367Z,5.66
2023-02-02T18:38:29.893Z,5.58
2023-02-02T18:43:56.529Z,5.54
2023-02-02T18:49:18.250Z,5.50
2023-02-02T18:54:38.695Z,5.40
2023-02-02T18:59:59.315Z,5.35
2023-02-02T19:05:41.619Z,5.30
2023-02-02T19:11:14.618Z,5.14
2023-02-02T19:16:38.289Z,5.09
2023-02-02T19:22:07.611Z,4.96
2023-02-02T19:27:29.877Z,4.92
2023-02-02T19:32:53.889Z,4.92
2023-02-02T19:38:17.801Z,4.91
2023-02-02T19:43:40.005Z,4.73
2023-02-02T19:49:10.639Z,4.78
2023-02-02T19:54:50.213Z,4.71
2023-02-02T20:00:19.076Z,4.58
2023-02-02T20:05:44.666Z,4.68
2023-02-02T20:11:23.985Z,4.56
2023-02-02T20:17:02.967Z,4.58
2023-02-02T20:22:28.770Z,4.70
2023-02-02T20:27:52.841Z,4.72
2023-02-02T20:33:22.936Z,4.67
2023-02-02T20:38:44.892Z,4.62
2023-02-02T20:44:05.704Z,4.53
2023-02-02T20:49:28.044Z,4.54
2023-02-02T20:54:49.107Z,4.48
2023-02-02T21:00:13.123Z,4.55
2023-02-02T21:05:33.895Z,4.60
2023-02-02T21:10:54.619Z,4.62
2023-02-02T21:16:15.828Z,4.67
2023-02-02T21:21:37.103Z,4.72
2023-02-02T21:26:59.366Z,4.74
2023-02-02T21:32:19.784Z,4.86
2023-02-02T21:37:40.541Z,4.93
2023-02-02T21:43:11.922Z,5.00
2023-02-02T21:48:34.564Z,5.27
2023-02-02T21:53:57.547Z,5.50
2023-02-02T21:59:23.804Z,5.64
2023-02-02T22:04:43.988Z,5.66
2023-02-02T22:10:42.307Z,5.74
2023-02-02T22:16:03.276Z,5.78
2023-02-02T22:21:24.295Z,5.79
2023-02-02T22:26:44.813Z,5.83
2023-02-02T22:32:05.154Z,5.82
2023-02-02T22:37:25.957Z,5.89
2023-02-02T22:42:46.441Z,5.92
2023-02-02T22:48:07.222Z,6.04
2023-02-02T22:53:27.787Z,6.08
2023-02-02T22:58:48.725Z,6.11
2023-02-02T23:04:09.409Z,6.16
2023-02-02T23:09:30.158Z,6.14
2023-02-02T23:14:50.680Z,6.19
2023-02-02T23:20:13.748Z,6.24
2023-02-02T23:25:35.240Z,6.31
2023-02-02T23:30:59.133Z,6.31
2023-02-02T23:36:20.284Z,6.35
2023-02-02T23:41:40.868Z,6.40
2023-02-02T23:47:02.278Z,6.44
2023-02-02T23:52:23.417Z,6.50
2023-02-02T23:57:44.435Z,6.53
